Flight Track Log - Related Links

Times and Time Zones

All times are in EDT time to prevent confusion due to time zone crossing. See the N905SH flight status page for this flight to view local times or setup timezone preferences in your user account.

Time Position Orientation Groundspeed Altitude Reporting Facility
EDT Latitude Longitude Course Direction KTS MPH feet Rate Location/Type
Wed 05:02:58 PM 43.5339 -96.7997 269° West 171 197 3,700  Level Minneapolis Center
Wed 05:04:01 PM 43.5333 -96.8594 269° West 200 230 5,100 1,776 Climbing Minneapolis Center
Wed 05:05:03 PM 43.5931 -96.8639 357° North 186 214 7,400 1,839 Climbing Minneapolis Center
Wed 05:06:05 PM 43.6422 -96.8667 358° North 180 207 8,900 1,500 Climbing Minneapolis Center
Wed 05:07:07 PM 43.6939 -96.8772 352° North 182 209 10,500 1,597 Climbing Minneapolis Center
Wed 05:08:09 PM 43.7478 -96.8856 354° North 187 215 12,200 1,694 Climbing Minneapolis Center
Wed 05:09:11 PM 43.8031 -96.8906 356° North 194 223 14,000 1,676 Climbing Minneapolis Center
Wed 05:10:25 PM 43.8681 -96.8928 359° North 195 224 16,000 1,721 Climbing Minneapolis Center
Wed 05:11:27 PM 43.9322 -96.8953 358° North 192 221 17,900 1,584 Climbing Minneapolis Center
Wed 05:12:30 PM 43.9911 -96.8942 North 206 237 19,300 1,008 Climbing Minneapolis Center
Wed 05:13:32 PM 44.0528 -96.8972 358° North 217 250 20,000 339 Climbing Minneapolis Center
Wed 05:14:34 PM 44.1261 -96.8925 North 252 290 20,000  Level Minneapolis Center
Wed 05:15:36 PM 44.2056 -96.8922 360° North 277 319 20,000  Level Minneapolis Center
Wed 05:16:38 PM 44.2850 -96.8931 360° North 283 326 20,000  Level Minneapolis Center
Wed 05:17:40 PM 44.3625 -96.8928 360° North 280 322 20,000  Level Minneapolis Center
Wed 05:18:42 PM 44.4578 -96.8956 359° North 283 326 20,000  Level Minneapolis Center
Wed 05:19:44 PM 44.5367 -96.8961 360° North 283 326 20,000  Level Minneapolis Center
Wed 05:20:46 PM 44.6167 -96.8958 360° North 285 328 20,000  Level Minneapolis Center
Wed 05:21:48 PM 44.6956 -96.8986 359° North 285 328 20,000  Level Minneapolis Center
Wed 05:22:50 PM 44.7750 -96.9033 358° North 285 328 20,000  Level Minneapolis Center
Wed 05:23:52 PM 44.8544 -96.9047 359° North 285 328 20,000  Level Minneapolis Center
Wed 05:24:54 PM 44.9467 -96.9089 358° North 277 319 20,000  Level Minneapolis Center
Wed 05:25:56 PM 45.0217 -96.9106 359° North 273 314 20,000  Level Minneapolis Center
Wed 05:26:58 PM 45.0950 -96.9083 North 266 306 20,000  Level Minneapolis Center
Wed 05:28:00 PM 45.1711 -96.9092 360° North 269 310 20,000  Level Minneapolis Center
Wed 05:29:02 PM 45.2456 -96.9083 360° North 267 307 20,000  Level Minneapolis Center
Wed 05:30:04 PM 45.3064 -96.9094 359° North 271 312 20,000  Level Minneapolis Center
Wed 05:31:06 PM 45.4136 -96.9158 358° North 274 315 20,000  Level Minneapolis Center
Wed 05:32:08 PM 45.4894 -96.9122 North 273 314 20,000  Level Minneapolis Center
Wed 05:33:10 PM 45.5650 -96.9108 North 272 313 20,000  Level Minneapolis Center
Wed 05:34:12 PM 45.6414 -96.9172 357° North 274 315 20,000  Level Minneapolis Center
Wed 05:35:14 PM 45.7158 -96.9197 359° North 270 311 20,000  Level Minneapolis Center
Wed 05:36:16 PM 45.7925 -96.9192 360° North 272 313 20,000  Level Minneapolis Center
Wed 05:37:18 PM 45.8831 -96.9264 357° North 273 314 20,000  Level Minneapolis Center
Wed 05:38:20 PM 45.9594 -96.9228 North 274 315 20,000 -48 Level Minneapolis Center
Wed 05:39:22 PM 46.0347 -96.9194 North 271 312 19,900 -774 Descending Minneapolis Center
Wed 05:40:24 PM 46.1150 -96.9219 359° North 282 325 18,400 -1,597 Descending Minneapolis Center
Wed 05:41:26 PM 46.2011 -96.9161 North 288 331 16,600 -1,742 Descending Minneapolis Center
Wed 05:42:28 PM 46.2833 -96.9183 359° North 282 325 14,800 -1,776 Descending Minneapolis Center
Wed 05:43:31 PM 46.3631 -96.9256 356° North 274 315 12,900 -1,776 Descending Minneapolis Center
Wed 05:44:33 PM 46.4450 -96.9294 358° North 280 322 11,100 -1,790 Descending Minneapolis Center
Wed 05:45:35 PM 46.5244 -96.9364 357° North 276 318 9,200 -1,644 Descending Minneapolis Center
Wed 05:46:48 PM 46.5983 -96.9397 358° North 273 314 7,400 -1,809 Descending Minneapolis Center
Wed 05:47:51 PM 46.6803 -96.9106 14° North 234 269 5,100 -1,776 Descending Minneapolis Center
Wed 05:48:53 PM 46.7450 -96.8842 16° North 231 266 3,700 -1,113 Descending Minneapolis Center
Wed 05:49:55 PM 46.8081 -96.8542 18° North 231 266 2,800 -774 Descending Minneapolis Center
Wed 05:50:57 PM 46.8539 -96.8183 28° Northeast 194 223 2,100 -726 Descending Minneapolis Center
Wed 05:51:59 PM 46.8975 -96.8164 North 155 178 1,300 -774 Descending Minneapolis Center
Wed 05:53:00 PM 46.9167 -96.8000 15° North  Level FlightAware Approximate
Wed 06:00:00 PM 46.9207 -96.8158 15° North  Level Estimated
Wed 06:01:00 PM 46.9207 -96.8158 15° North  Level Estimated

Login

Don't have an account? Register now (free) for customized features, flight alerts, and more!